sensor_id;sensor_type;location;lat;lon;timestamp;pressure;altitude;pressure_sealevel;temperature;humidity
73671;BME280;61968;48.178;11.566;2022-12-18T00:00:08;96796.22;;;-3.65;44.13
73671;BME280;61968;48.178;11.566;2022-12-18T00:02:34;96790.03;;;-3.51;44.05
73671;BME280;61968;48.178;11.566;2022-12-18T00:05:01;96792.34;;;-3.59;44.23
73671;BME280;61968;48.178;11.566;2022-12-18T00:07:28;96781.63;;;-3.77;43.67
73671;BME280;61968;48.178;11.566;2022-12-18T00:09:54;96780.84;;;-3.66;44.19
73671;BME280;61968;48.178;11.566;2022-12-18T00:12:21;96777.56;;;-3.57;44.04
73671;BME280;61968;48.178;11.566;2022-12-18T00:14:49;96778.81;;;-3.74;43.49
73671;BME280;61968;48.178;11.566;2022-12-18T00:17:15;96779.41;;;-3.82;44.19
73671;BME280;61968;48.178;11.566;2022-12-18T00:19:42;96780.59;;;-3.74;44.10
73671;BME280;61968;48.178;11.566;2022-12-18T00:22:08;96785.78;;;-3.63;44.00
73671;BME280;61968;48.178;11.566;2022-12-18T00:24:35;96787.78;;;-3.67;44.18
73671;BME280;61968;48.178;11.566;2022-12-18T00:27:01;96780.72;;;-3.76;44.01
73671;BME280;61968;48.178;11.566;2022-12-18T00:29:28;96777.06;;;-3.73;43.75
73671;BME280;61968;48.178;11.566;2022-12-18T00:31:56;96791.16;;;-3.78;44.01
73671;BME280;61968;48.178;11.566;2022-12-18T00:34:22;96795.88;;;-3.71;44.21
73671;BME280;61968;48.178;11.566;2022-12-18T00:36:49;96812.19;;;-3.82;44.12
73671;BME280;61968;48.178;11.566;2022-12-18T00:39:15;96820.53;;;-3.79;44.75
73671;BME280;61968;48.178;11.566;2022-12-18T00:41:42;96816.63;;;-3.84;44.69
73671;BME280;61968;48.178;11.566;2022-12-18T00:44:26;96813.47;;;-3.76;44.81
73671;BME280;61968;48.178;11.566;2022-12-18T00:46:52;96810.09;;;-3.66;43.61
73671;BME280;61968;48.178;11.566;2022-12-18T00:49:20;96820.53;;;-3.79;44.67
73671;BME280;61968;48.178;11.566;2022-12-18T00:51:47;96815.94;;;-3.75;43.94
73671;BME280;61968;48.178;11.566;2022-12-18T00:54:14;96820.75;;;-3.82;44.37
73671;BME280;61968;48.178;11.566;2022-12-18T00:56:41;96818.50;;;-3.86;44.61
73671;BME280;61968;48.178;11.566;2022-12-18T00:59:07;96814.38;;;-3.89;44.73
73671;BME280;61968;48.178;11.566;2022-12-18T01:01:34;96812.38;;;-3.96;44.54
73671;BME280;61968;48.178;11.566;2022-12-18T01:04:01;96815.09;;;-3.87;44.44
73671;BME280;61968;48.178;11.566;2022-12-18T01:06:30;96822.03;;;-3.87;44.59
73671;BME280;61968;48.178;11.566;2022-12-18T01:08:56;96824.38;;;-3.84;44.64
73671;BME280;61968;48.178;11.566;2022-12-18T01:11:23;96828.59;;;-3.94;44.62
73671;BME280;61968;48.178;11.566;2022-12-18T01:13:51;96830.94;;;-3.91;44.68
73671;BME280;61968;48.178;11.566;2022-12-18T01:16:17;96828.50;;;-3.82;44.65
73671;BME280;61968;48.178;11.566;2022-12-18T01:18:44;96836.50;;;-3.85;44.85
73671;BME280;61968;48.178;11.566;2022-12-18T01:21:13;96841.66;;;-3.73;44.58
73671;BME280;61968;48.178;11.566;2022-12-18T01:23:41;96853.72;;;-3.61;44.09
73671;BME280;61968;48.178;11.566;2022-12-18T01:26:09;96855.44;;;-3.62;43.41
73671;BME280;61968;48.178;11.566;2022-12-18T01:28:36;96858.25;;;-3.65;43.35
73671;BME280;61968;48.178;11.566;2022-12-18T01:31:11;96868.72;;;-3.66;43.62
73671;BME280;61968;48.178;11.566;2022-12-18T01:33:38;96870.97;;;-3.62;43.62
73671;BME280;61968;48.178;11.566;2022-12-18T01:36:05;96867.63;;;-3.75;44.29
73671;BME280;61968;48.178;11.566;2022-12-18T01:38:31;96874.31;;;-3.84;44.57
73671;BME280;61968;48.178;11.566;2022-12-18T01:41:00;96884.16;;;-3.89;44.67
73671;BME280;61968;48.178;11.566;2022-12-18T01:43:41;96875.94;;;-3.83;44.49
73671;BME280;61968;48.178;11.566;2022-12-18T01:46:08;96875.72;;;-3.80;44.89
73671;BME280;61968;48.178;11.566;2022-12-18T01:48:34;96861.66;;;-3.75;44.92
73671;BME280;61968;48.178;11.566;2022-12-18T01:51:01;96858.03;;;-3.73;44.60
73671;BME280;61968;48.178;11.566;2022-12-18T01:53:28;96876.47;;;-3.66;44.51
73671;BME280;61968;48.178;11.566;2022-12-18T01:55:56;96869.22;;;-3.61;43.95
73671;BME280;61968;48.178;11.566;2022-12-18T01:58:32;96872.72;;;-3.62;44.53
73671;BME280;61968;48.178;11.566;2022-12-18T02:01:01;96873.75;;;-3.76;44.62
73671;BME280;61968;48.178;11.566;2022-12-18T02:03:28;96872.94;;;-3.65;44.35
73671;BME280;61968;48.178;11.566;2022-12-18T02:06:00;96864.94;;;-3.73;44.66
73671;BME280;61968;48.178;11.566;2022-12-18T02:08:36;96867.50;;;-3.73;44.51
73671;BME280;61968;48.178;11.566;2022-12-18T02:11:08;96861.06;;;-3.68;44.19
73671;BME280;61968;48.178;11.566;2022-12-18T02:13:45;96864.19;;;-3.87;44.55
73671;BME280;61968;48.178;11.566;2022-12-18T02:16:19;96849.28;;;-3.83;44.64
73671;BME280;61968;48.178;11.566;2022-12-18T02:18:50;96851.19;;;-3.85;44.70
73671;BME280;61968;48.178;11.566;2022-12-18T02:21:27;96851.28;;;-3.87;44.58
73671;BME280;61968;48.178;11.566;2022-12-18T02:23:58;96855.94;;;-3.92;44.87
73671;BME280;61968;48.178;11.566;2022-12-18T02:26:34;96857.59;;;-3.91;45.07
73671;BME280;61968;48.178;11.566;2022-12-18T02:29:07;96861.84;;;-3.90;45.16
73671;BME280;61968;48.178;11.566;2022-12-18T02:31:37;96860.56;;;-3.84;44.59
73671;BME280;61968;48.178;11.566;2022-12-18T02:34:07;96850.09;;;-3.83;44.76
73671;BME280;61968;48.178;11.566;2022-12-18T02:36:36;96855.63;;;-3.87;44.66
73671;BME280;61968;48.178;11.566;2022-12-18T02:39:05;96850.38;;;-3.74;44.52
73671;BME280;61968;48.178;11.566;2022-12-18T02:41:35;96842.50;;;-3.73;43.69
73671;BME280;61968;48.178;11.566;2022-12-18T02:44:09;96849.06;;;-3.80;44.29
73671;BME280;61968;48.178;11.566;2022-12-18T02:46:38;96851.41;;;-3.88;44.20
73671;BME280;61968;48.178;11.566;2022-12-18T02:49:14;96853.94;;;-3.99;45.13
73671;BME280;61968;48.178;11.566;2022-12-18T02:51:50;96855.56;;;-3.98;44.83
73671;BME280;61968;48.178;11.566;2022-12-18T02:54:19;96859.53;;;-4.06;44.89
73671;BME280;61968;48.178;11.566;2022-12-18T02:56:51;96865.69;;;-3.95;45.11
73671;BME280;61968;48.178;11.566;2022-12-18T02:59:25;96860.41;;;-3.94;44.85
73671;BME280;61968;48.178;11.566;2022-12-18T03:01:58;96860.88;;;-3.89;44.75
73671;BME280;61968;48.178;11.566;2022-12-18T03:04:26;96859.47;;;-3.93;44.70
73671;BME280;61968;48.178;11.566;2022-12-18T03:06:56;96856.63;;;-4.01;45.46
73671;BME280;61968;48.178;11.566;2022-12-18T03:09:28;96847.22;;;-4.02;44.60
73671;BME280;61968;48.178;11.566;2022-12-18T03:12:02;96849.59;;;-3.99;44.73
73671;BME280;61968;48.178;11.566;2022-12-18T03:14:52;96847.28;;;-3.91;44.34
73671;BME280;61968;48.178;11.566;2022-12-18T03:17:23;96840.22;;;-3.89;44.94
73671;BME280;61968;48.178;11.566;2022-12-18T03:19:52;96839.63;;;-3.92;44.48
73671;BME280;61968;48.178;11.566;2022-12-18T03:22:22;96842.34;;;-3.83;44.69
73671;BME280;61968;48.178;11.566;2022-12-18T03:24:50;96843.06;;;-3.81;44.44
73671;BME280;61968;48.178;11.566;2022-12-18T03:27:21;96840.84;;;-3.74;44.05
73671;BME280;61968;48.178;11.566;2022-12-18T03:29:52;96841.22;;;-3.79;44.35
73671;BME280;61968;48.178;11.566;2022-12-18T03:32:26;96847.38;;;-3.92;44.61
73671;BME280;61968;48.178;11.566;2022-12-18T03:34:57;96848.63;;;-4.09;44.79
73671;BME280;61968;48.178;11.566;2022-12-18T03:37:25;96852.63;;;-4.05;44.94
73671;BME280;61968;48.178;11.566;2022-12-18T03:39:52;96859.59;;;-3.94;44.79
73671;BME280;61968;48.178;11.566;2022-12-18T03:42:25;96864.88;;;-3.96;44.97
73671;BME280;61968;48.178;11.566;2022-12-18T03:44:57;96861.78;;;-4.01;45.06
73671;BME280;61968;48.178;11.566;2022-12-18T03:47:30;96856.53;;;-3.99;45.22
73671;BME280;61968;48.178;11.566;2022-12-18T03:50:06;96858.06;;;-3.97;45.00
73671;BME280;61968;48.178;11.566;2022-12-18T03:52:39;96858.81;;;-3.84;45.22
73671;BME280;61968;48.178;11.566;2022-12-18T03:55:09;96850.09;;;-3.83;44.77
73671;BME280;61968;48.178;11.566;2022-12-18T03:57:39;96851.50;;;-3.90;44.40
73671;BME280;61968;48.178;11.566;2022-12-18T04:00:08;96856.44;;;-3.87;44.82
73671;BME280;61968;48.178;11.566;2022-12-18T04:02:37;96860.78;;;-3.87;44.28
73671;BME280;61968;48.178;11.566;2022-12-18T04:05:07;96859.47;;;-3.93;44.84
73671;BME280;61968;48.178;11.566;2022-12-18T04:07:36;96867.78;;;-4.00;45.28
73671;BME280;61968;48.178;11.566;2022-12-18T04:10:03;96864.28;;;-3.99;45.30
73671;BME280;61968;48.178;11.566;2022-12-18T04:12:32;96858.88;;;-3.96;45.36
73671;BME280;61968;48.178;11.566;2022-12-18T04:15:00;96862.19;;;-3.94;45.47
73671;BME280;61968;48.178;11.566;2022-12-18T04:17:27;96859.97;;;-3.88;45.29
73671;BME280;61968;48.178;11.566;2022-12-18T04:19:53;96854.22;;;-3.80;45.13
73671;BME280;61968;48.178;11.566;2022-12-18T04:22:20;96856.03;;;-3.69;44.26
73671;BME280;61968;48.178;11.566;2022-12-18T04:24:46;96851.78;;;-3.70;44.49
73671;BME280;61968;48.178;11.566;2022-12-18T04:27:13;96852.69;;;-3.83;44.51
73671;BME280;61968;48.178;11.566;2022-12-18T04:29:39;96861.06;;;-3.79;44.12
73671;BME280;61968;48.178;11.566;2022-12-18T04:32:08;96870.09;;;-3.85;44.14
73671;BME280;61968;48.178;11.566;2022-12-18T04:34:35;96869.00;;;-3.93;45.29
73671;BME280;61968;48.178;11.566;2022-12-18T04:37:01;96875.88;;;-4.05;44.94
73671;BME280;61968;48.178;11.566;2022-12-18T04:39:28;96873.00;;;-4.13;45.59
73671;BME280;61968;48.178;11.566;2022-12-18T04:41:54;96859.41;;;-4.04;45.50
73671;BME280;61968;48.178;11.566;2022-12-18T04:44:21;96870.97;;;-3.97;44.85
73671;BME280;61968;48.178;11.566;2022-12-18T04:46:47;96870.63;;;-3.92;45.25
73671;BME280;61968;48.178;11.566;2022-12-18T04:49:15;96883.91;;;-3.97;44.86
73671;BME280;61968;48.178;11.566;2022-12-18T04:51:42;96890.69;;;-3.96;44.89
73671;BME280;61968;48.178;11.566;2022-12-18T04:54:08;96892.84;;;-3.90;45.17
73671;BME280;61968;48.178;11.566;2022-12-18T04:56:35;96897.28;;;-3.92;44.68
73671;BME280;61968;48.178;11.566;2022-12-18T04:59:01;96892.53;;;-3.85;44.92
73671;BME280;61968;48.178;11.566;2022-12-18T05:01:28;96887.94;;;-3.82;44.63
73671;BME280;61968;48.178;11.566;2022-12-18T05:03:54;96893.41;;;-3.97;44.67
73671;BME280;61968;48.178;11.566;2022-12-18T05:06:22;96889.31;;;-3.89;44.64
73671;BME280;61968;48.178;11.566;2022-12-18T05:08:49;96888.63;;;-3.91;45.10
73671;BME280;61968;48.178;11.566;2022-12-18T05:11:15;96898.72;;;-3.88;44.89
73671;BME280;61968;48.178;11.566;2022-12-18T05:13:43;96902.81;;;-3.96;45.28
73671;BME280;61968;48.178;11.566;2022-12-18T05:16:09;96909.50;;;-3.94;45.36
73671;BME280;61968;48.178;11.566;2022-12-18T05:18:36;96908.25;;;-3.88;45.13
73671;BME280;61968;48.178;11.566;2022-12-18T05:21:03;96895.69;;;-3.82;45.22
73671;BME280;61968;48.178;11.566;2022-12-18T05:23:39;96887.91;;;-3.93;45.24
73671;BME280;61968;48.178;11.566;2022-12-18T05:26:06;96888.13;;;-3.96;45.05
73671;BME280;61968;48.178;11.566;2022-12-18T05:28:34;96897.19;;;-3.90;44.99
73671;BME280;61968;48.178;11.566;2022-12-18T05:31:03;96903.63;;;-3.96;44.86
73671;BME280;61968;48.178;11.566;2022-12-18T05:33:31;96911.59;;;-3.99;45.34
73671;BME280;61968;48.178;11.566;2022-12-18T05:36:00;96911.59;;;-3.99;45.32
73671;BME280;61968;48.178;11.566;2022-12-18T05:38:29;96916.53;;;-3.96;45.18
73671;BME280;61968;48.178;11.566;2022-12-18T05:40:58;96919.25;;;-3.97;44.65
73671;BME280;61968;48.178;11.566;2022-12-18T05:43:25;96913.34;;;-3.99;45.60
73671;BME280;61968;48.178;11.566;2022-12-18T05:45:52;96909.06;;;-3.88;44.83
73671;BME280;61968;48.178;11.566;2022-12-18T05:48:20;96909.66;;;-3.84;44.41
73671;BME280;61968;48.178;11.566;2022-12-18T05:50:48;96914.91;;;-3.97;44.60
73671;BME280;61968;48.178;11.566;2022-12-18T05:53:17;96918.09;;;-3.93;44.80
73671;BME280;61968;48.178;11.566;2022-12-18T05:55:45;96918.41;;;-3.98;45.15
73671;BME280;61968;48.178;11.566;2022-12-18T05:58:13;96927.81;;;-3.97;45.02
73671;BME280;61968;48.178;11.566;2022-12-18T06:00:41;96926.38;;;-4.01;44.84
73671;BME280;61968;48.178;11.566;2022-12-18T06:03:09;96927.31;;;-4.02;44.59
73671;BME280;61968;48.178;11.566;2022-12-18T06:05:37;96929.16;;;-4.04;45.22
73671;BME280;61968;48.178;11.566;2022-12-18T06:08:05;96933.34;;;-4.14;45.54
73671;BME280;61968;48.178;11.566;2022-12-18T06:10:32;96930.22;;;-4.07;45.09
73671;BME280;61968;48.178;11.566;2022-12-18T06:12:59;96926.94;;;-4.09;44.77
73671;BME280;61968;48.178;11.566;2022-12-18T06:15:27;96929.16;;;-4.04;44.71
73671;BME280;61968;48.178;11.566;2022-12-18T06:17:53;96931.00;;;-3.93;44.93
73671;BME280;61968;48.178;11.566;2022-12-18T06:20:20;96926.66;;;-3.93;44.67
73671;BME280;61968;48.178;11.566;2022-12-18T06:22:47;96922.38;;;-4.05;44.96
73671;BME280;61968;48.178;11.566;2022-12-18T06:25:14;96933.53;;;-4.05;45.24
73671;BME280;61968;48.178;11.566;2022-12-18T06:27:40;96935.38;;;-4.07;44.78
73671;BME280;61968;48.178;11.566;2022-12-18T06:30:08;96935.81;;;-4.13;44.82
73671;BME280;61968;48.178;11.566;2022-12-18T06:32:36;96937.31;;;-4.21;45.51
73671;BME280;61968;48.178;11.566;2022-12-18T06:35:03;96943.09;;;-4.18;44.91
73671;BME280;61968;48.178;11.566;2022-12-18T06:37:30;96953.41;;;-4.18;44.84
73671;BME280;61968;48.178;11.566;2022-12-18T06:39:57;96955.56;;;-4.12;45.24
73671;BME280;61968;48.178;11.566;2022-12-18T06:42:24;96952.97;;;-4.12;45.11
73671;BME280;61968;48.178;11.566;2022-12-18T06:44:50;96951.97;;;-4.22;45.22
73671;BME280;61968;48.178;11.566;2022-12-18T06:47:17;96955.19;;;-4.18;44.84
73671;BME280;61968;48.178;11.566;2022-12-18T06:49:45;96960.81;;;-4.13;44.42
73671;BME280;61968;48.178;11.566;2022-12-18T06:52:11;96962.66;;;-4.03;44.80
73671;BME280;61968;48.178;11.566;2022-12-18T06:54:38;96956.69;;;-4.16;44.31
73671;BME280;61968;48.178;11.566;2022-12-18T06:57:04;96972.25;;;-4.05;44.80
73671;BME280;61968;48.178;11.566;2022-12-18T06:59:31;96965.06;;;-4.12;44.98
73671;BME280;61968;48.178;11.566;2022-12-18T07:01:57;96971.75;;;-3.97;43.96
73671;BME280;61968;48.178;11.566;2022-12-18T07:04:27;96985.94;;;-4.15;44.15
73671;BME280;61968;48.178;11.566;2022-12-18T07:06:55;96985.31;;;-4.19;44.39
73671;BME280;61968;48.178;11.566;2022-12-18T07:09:22;96991.75;;;-4.25;44.48
73671;BME280;61968;48.178;11.566;2022-12-18T07:11:49;96990.81;;;-4.23;44.42
73671;BME280;61968;48.178;11.566;2022-12-18T07:14:15;96988.22;;;-4.23;45.04
73671;BME280;61968;48.178;11.566;2022-12-18T07:16:42;96991.63;;;-4.23;45.05
73671;BME280;61968;48.178;11.566;2022-12-18T07:19:08;96994.00;;;-4.20;44.71
73671;BME280;61968;48.178;11.566;2022-12-18T07:21:35;96997.41;;;-4.19;44.73
73671;BME280;61968;48.178;11.566;2022-12-18T07:24:03;97001.94;;;-4.10;44.68
73671;BME280;61968;48.178;11.566;2022-12-18T07:26:30;97011.19;;;-3.95;44.62
73671;BME280;61968;48.178;11.566;2022-12-18T07:28:57;97002.13;;;-4.00;43.86
73671;BME280;61968;48.178;11.566;2022-12-18T07:31:25;97008.13;;;-4.00;44.48
73671;BME280;61968;48.178;11.566;2022-12-18T07:33:52;97001.91;;;-3.97;43.94
73671;BME280;61968;48.178;11.566;2022-12-18T07:36:19;97007.81;;;-4.08;44.18
73671;BME280;61968;48.178;11.566;2022-12-18T07:38:46;96993.06;;;-4.19;44.31
73671;BME280;61968;48.178;11.566;2022-12-18T07:41:15;96992.84;;;-4.16;44.58
73671;BME280;61968;48.178;11.566;2022-12-18T07:43:41;97003.81;;;-4.12;44.32
73671;BME280;61968;48.178;11.566;2022-12-18T07:46:09;96997.63;;;-4.22;44.79
73671;BME280;61968;48.178;11.566;2022-12-18T07:48:36;96991.59;;;-4.10;44.47
73671;BME280;61968;48.178;11.566;2022-12-18T07:51:05;96996.88;;;-4.12;44.16
73671;BME280;61968;48.178;11.566;2022-12-18T07:53:33;97000.16;;;-4.10;44.13
73671;BME280;61968;48.178;11.566;2022-12-18T07:56:01;96997.94;;;-4.14;44.37
73671;BME280;61968;48.178;11.566;2022-12-18T07:58:29;96998.22;;;-4.19;44.16
73671;BME280;61968;48.178;11.566;2022-12-18T08:01:02;97002.78;;;-4.22;46.08
73671;BME280;61968;48.178;11.566;2022-12-18T08:03:28;96995.88;;;-4.22;44.84
73671;BME280;61968;48.178;11.566;2022-12-18T08:05:58;97002.19;;;-4.26;44.64
73671;BME280;61968;48.178;11.566;2022-12-18T08:08:25;97001.53;;;-4.17;44.91
73671;BME280;61968;48.178;11.566;2022-12-18T08:10:52;97009.69;;;-4.10;44.54
73671;BME280;61968;48.178;11.566;2022-12-18T08:13:18;97016.09;;;-4.03;44.29
73671;BME280;61968;48.178;11.566;2022-12-18T08:15:46;97023.75;;;-4.14;44.32
73671;BME280;61968;48.178;11.566;2022-12-18T08:18:13;97017.72;;;-4.02;44.25
73671;BME280;61968;48.178;11.566;2022-12-18T08:20:39;97023.31;;;-4.08;43.88
73671;BME280;61968;48.178;11.566;2022-12-18T08:23:06;97023.31;;;-4.08;43.83
73671;BME280;61968;48.178;11.566;2022-12-18T08:25:33;97016.47;;;-3.96;43.78
73671;BME280;61968;48.178;11.566;2022-12-18T08:28:00;97023.22;;;-4.07;44.37
73671;BME280;61968;48.178;11.566;2022-12-18T08:30:26;97021.25;;;-4.16;44.70
73671;BME280;61968;48.178;11.566;2022-12-18T08:32:54;97026.97;;;-4.23;44.82
73671;BME280;61968;48.178;11.566;2022-12-18T08:35:21;97022.22;;;-4.17;44.46
73671;BME280;61968;48.178;11.566;2022-12-18T08:37:47;97020.97;;;-4.11;44.55
73671;BME280;61968;48.178;11.566;2022-12-18T08:40:14;97027.06;;;-4.12;44.32
73671;BME280;61968;48.178;11.566;2022-12-18T08:42:41;97016.94;;;-4.15;44.45
73671;BME280;61968;48.178;11.566;2022-12-18T08:45:25;97029.00;;;-4.16;44.61
73671;BME280;61968;48.178;11.566;2022-12-18T08:47:51;97035.03;;;-4.15;44.49
73671;BME280;61968;48.178;11.566;2022-12-18T08:50:19;97034.06;;;-4.02;44.45
73671;BME280;61968;48.178;11.566;2022-12-18T08:52:46;97039.78;;;-4.09;44.47
73671;BME280;61968;48.178;11.566;2022-12-18T08:55:13;97028.50;;;-4.08;44.78
73671;BME280;61968;48.178;11.566;2022-12-18T08:57:40;97023.63;;;-4.00;44.35
73671;BME280;61968;48.178;11.566;2022-12-18T09:00:08;97025.38;;;-4.00;44.10
73671;BME280;61968;48.178;11.566;2022-12-18T09:02:34;97039.03;;;-4.11;44.47
73671;BME280;61968;48.178;11.566;2022-12-18T09:05:01;97041.19;;;-4.05;44.62
73671;BME280;61968;48.178;11.566;2022-12-18T09:07:29;97036.94;;;-3.93;44.38
73671;BME280;61968;48.178;11.566;2022-12-18T09:09:55;97048.63;;;-4.00;44.49
73671;BME280;61968;48.178;11.566;2022-12-18T09:12:22;97042.84;;;-4.04;44.46
73671;BME280;61968;48.178;11.566;2022-12-18T09:14:48;97052.47;;;-4.06;44.46
73671;BME280;61968;48.178;11.566;2022-12-18T09:17:15;97051.50;;;-3.92;44.69
73671;BME280;61968;48.178;11.566;2022-12-18T09:19:42;97040.25;;;-3.91;44.05
73671;BME280;61968;48.178;11.566;2022-12-18T09:22:08;97038.16;;;-3.86;44.55
73671;BME280;61968;48.178;11.566;2022-12-18T09:24:37;97040.94;;;-3.89;43.89
73671;BME280;61968;48.178;11.566;2022-12-18T09:27:03;97041.44;;;-1.32;59.79
73671;BME280;61968;48.178;11.566;2022-12-18T09:29:30;97034.25;;;-1.72;47.46
73671;BME280;61968;48.178;11.566;2022-12-18T09:31:57;97027.94;;;-2.35;42.85
73671;BME280;61968;48.178;11.566;2022-12-18T09:34:23;97025.78;;;-2.75;42.12
73671;BME280;61968;48.178;11.566;2022-12-18T09:36:50;97035.44;;;-2.89;44.04
73671;BME280;61968;48.178;11.566;2022-12-18T09:39:16;97033.03;;;-2.92;43.46
73671;BME280;61968;48.178;11.566;2022-12-18T09:41:47;97028.44;;;-2.99;42.35
73671;BME280;61968;48.178;11.566;2022-12-18T09:44:23;97021.31;;;-3.20;42.38
73671;BME280;61968;48.178;11.566;2022-12-18T09:46:55;97029.59;;;-3.39;42.65
73671;BME280;61968;48.178;11.566;2022-12-18T09:49:27;97036.84;;;-1.61;62.04
73671;BME280;61968;48.178;11.566;2022-12-18T09:51:59;97027.19;;;-0.73;45.81
73671;BME280;61968;48.178;11.566;2022-12-18T09:54:33;97027.91;;;-1.79;41.33
73671;BME280;61968;48.178;11.566;2022-12-18T09:57:03;97018.53;;;-2.14;41.02
73671;BME280;61968;48.178;11.566;2022-12-18T09:59:33;97018.53;;;-2.48;41.39
73671;BME280;61968;48.178;11.566;2022-12-18T10:02:12;97020.38;;;-2.72;41.23
73671;BME280;61968;48.178;11.566;2022-12-18T10:04:39;97023.53;;;-2.91;41.11
73671;BME280;61968;48.178;11.566;2022-12-18T10:07:12;97023.44;;;-3.14;42.09
73671;BME280;61968;48.178;11.566;2022-12-18T10:09:44;97018.44;;;-3.28;47.27
73671;BME280;61968;48.178;11.566;2022-12-18T10:12:23;97008.00;;;-0.82;46.97
73671;BME280;61968;48.178;11.566;2022-12-18T10:14:55;96997.88;;;-1.50;40.70
73671;BME280;61968;48.178;11.566;2022-12-18T10:17:28;97006.97;;;-1.99;40.77
73671;BME280;61968;48.178;11.566;2022-12-18T10:20:01;97002.66;;;-2.43;41.21
73671;BME280;61968;48.178;11.566;2022-12-18T10:22:43;97001.69;;;-2.76;42.33
73671;BME280;61968;48.178;11.566;2022-12-18T10:25:20;97004.59;;;-2.80;42.10
73671;BME280;61968;48.178;11.566;2022-12-18T10:27:52;96998.63;;;-2.70;41.63
73671;BME280;61968;48.178;11.566;2022-12-18T10:30:21;96993.31;;;-2.79;40.86
73671;BME280;61968;48.178;11.566;2022-12-18T10:32:49;96987.31;;;-2.91;41.03
73671;BME280;61968;48.178;11.566;2022-12-18T10:35:19;96981.16;;;-3.01;41.35
73671;BME280;61968;48.178;11.566;2022-12-18T10:38:06;96979.97;;;-3.08;41.56
73671;BME280;61968;48.178;11.566;2022-12-18T10:40:48;96977.00;;;-3.15;42.47
73671;BME280;61968;48.178;11.566;2022-12-18T10:43:20;96981.81;;;-3.22;41.65
73671;BME280;61968;48.178;11.566;2022-12-18T10:46:08;96977.06;;;-3.28;42.47
73671;BME280;61968;48.178;11.566;2022-12-18T10:48:47;96990.19;;;-3.18;42.53
73671;BME280;61968;48.178;11.566;2022-12-18T10:51:20;96976.66;;;-3.22;42.46
73671;BME280;61968;48.178;11.566;2022-12-18T10:53:52;96976.47;;;-3.32;42.83
73671;BME280;61968;48.178;11.566;2022-12-18T10:56:20;96984.47;;;-3.35;42.73
73671;BME280;61968;48.178;11.566;2022-12-18T10:58:56;96978.81;;;-3.40;43.20
73671;BME280;61968;48.178;11.566;2022-12-18T11:01:23;96987.81;;;-3.10;64.73
73671;BME280;61968;48.178;11.566;2022-12-18T11:04:00;96981.91;;;0.60;58.76
73671;BME280;61968;48.178;11.566;2022-12-18T11:06:26;96987.38;;;1.62;39.47
73671;BME280;61968;48.178;11.566;2022-12-18T11:08:58;96992.28;;;0.31;40.09
73671;BME280;61968;48.178;11.566;2022-12-18T11:11:26;96996.78;;;-0.62;38.83
73671;BME280;61968;48.178;11.566;2022-12-18T11:14:00;96996.53;;;-1.00;40.58
73671;BME280;61968;48.178;11.566;2022-12-18T11:16:29;97000.44;;;-1.38;40.71
73671;BME280;61968;48.178;11.566;2022-12-18T11:19:10;97000.81;;;-1.86;40.56
73671;BME280;61968;48.178;11.566;2022-12-18T11:21:39;97002.88;;;-2.12;41.28
73671;BME280;61968;48.178;11.566;2022-12-18T11:24:19;97006.03;;;-2.20;42.63
73671;BME280;61968;48.178;11.566;2022-12-18T11:26:46;97000.88;;;-2.43;41.34
73671;BME280;61968;48.178;11.566;2022-12-18T11:29:19;96995.91;;;-2.57;41.46
73671;BME280;61968;48.178;11.566;2022-12-18T11:31:49;96998.06;;;-0.98;51.57
73671;BME280;61968;48.178;11.566;2022-12-18T11:34:16;96998.25;;;-0.28;39.10
73671;BME280;61968;48.178;11.566;2022-12-18T11:36:47;96993.75;;;-1.20;38.86
73671;BME280;61968;48.178;11.566;2022-12-18T11:39:18;96991.06;;;-1.62;40.90
73671;BME280;61968;48.178;11.566;2022-12-18T11:41:50;96983.94;;;-1.81;40.97
73671;BME280;61968;48.178;11.566;2022-12-18T11:44:41;96979.41;;;-2.22;40.64
73671;BME280;61968;48.178;11.566;2022-12-18T11:47:13;96984.25;;;-2.29;41.70
73671;BME280;61968;48.178;11.566;2022-12-18T11:49:44;96978.16;;;-2.39;41.99
73671;BME280;61968;48.178;11.566;2022-12-18T11:52:17;96971.09;;;-2.59;41.89
73671;BME280;61968;48.178;11.566;2022-12-18T11:54:45;96971.22;;;-2.61;42.21
73671;BME280;61968;48.178;11.566;2022-12-18T11:57:27;96971.31;;;-2.63;42.28
73671;BME280;61968;48.178;11.566;2022-12-18T12:00:07;96974.25;;;-2.78;42.50
73671;BME280;61968;48.178;11.566;2022-12-18T12:02:48;96978.47;;;-2.77;41.21
73671;BME280;61968;48.178;11.566;2022-12-18T12:05:29;96967.06;;;-2.97;41.39
73671;BME280;61968;48.178;11.566;2022-12-18T12:08:03;96970.34;;;-2.95;41.82
73671;BME280;61968;48.178;11.566;2022-12-18T12:10:42;96958.66;;;-3.12;41.88
73671;BME280;61968;48.178;11.566;2022-12-18T12:13:31;96964.31;;;-3.18;42.27
73671;BME280;61968;48.178;11.566;2022-12-18T12:16:11;96967.34;;;-3.13;42.60
73671;BME280;61968;48.178;11.566;2022-12-18T12:18:53;96962.19;;;-3.13;42.04
73671;BME280;61968;48.178;11.566;2022-12-18T12:21:26;96965.16;;;-3.06;42.35
73671;BME280;61968;48.178;11.566;2022-12-18T12:23:59;96961.97;;;-2.99;41.76
73671;BME280;61968;48.178;11.566;2022-12-18T12:26:34;96957.53;;;-2.97;41.28
73671;BME280;61968;48.178;11.566;2022-12-18T12:29:18;96946.75;;;-3.26;41.38
73671;BME280;61968;48.178;11.566;2022-12-18T12:32:00;96946.13;;;-3.41;42.61
73671;BME280;61968;48.178;11.566;2022-12-18T12:34:34;96936.22;;;-3.47;42.71
73671;BME280;61968;48.178;11.566;2022-12-18T12:37:15;96946.34;;;-3.44;42.48
73671;BME280;61968;48.178;11.566;2022-12-18T12:39:46;96940.25;;;-3.43;42.33
73671;BME280;61968;48.178;11.566;2022-12-18T12:42:18;96941.53;;;-3.48;42.63
73671;BME280;61968;48.178;11.566;2022-12-18T12:45:02;96948.03;;;-3.32;42.58
73671;BME280;61968;48.178;11.566;2022-12-18T12:47:36;96953.78;;;-3.28;43.07
73671;BME280;61968;48.178;11.566;2022-12-18T12:50:05;96950.28;;;-3.27;42.46
73671;BME280;61968;48.178;11.566;2022-12-18T12:52:40;96946.66;;;-3.24;42.49
73671;BME280;61968;48.178;11.566;2022-12-18T12:55:14;96939.13;;;-3.27;42.27
73671;BME280;61968;48.178;11.566;2022-12-18T12:57:46;96939.31;;;-3.42;42.44
73671;BME280;61968;48.178;11.566;2022-12-18T13:00:16;96952.34;;;-3.43;42.68
73671;BME280;61968;48.178;11.566;2022-12-18T13:02:50;96958.81;;;-3.49;42.20